Time;durP1;ratioP1;P1;durP2;ratioP2;P2;SDS_P1;SDS_P2;PMS_P1;PMS_P2;Temp;Humidity;BMP_temperature;BMP_pressure;BME280_temperature;BME280_humidity;BME280_pressure;Samples;Min_cycle;Max_cycle;Signal;HPM_P1;HPM_P2
2023/12/26 00:01:27;;;;;;;2.45;1.40;;;;;;;;;;6061135;23;20392;-88
2023/12/26 00:03:54;;;;;;;1.63;1.48;;;;;;;;;;6056984;23;20540;-88
2023/12/26 00:06:22;;;;;;;1.33;1.23;;;;;;;;;;6085296;23;20015;-88
2023/12/26 00:08:56;;;;;;;2.03;1.20;;;;;;;;;;6061067;23;20539;-88
2023/12/26 00:11:24;;;;;;;1.80;1.65;;;;;;;;;;6060286;23;20018;-88
2023/12/26 00:13:51;;;;;;;1.33;1.20;;;;;;;;;;6060723;23;20020;-87
2023/12/26 00:16:17;;;;;;;3.00;1.30;;;;;;;;;;6052195;23;20456;-88
2023/12/26 00:18:44;;;;;;;1.98;1.27;;;;;;;;;;6006183;23;20025;-88
2023/12/26 00:21:12;;;;;;;1.75;1.10;;;;;;;;;;6005258;23;20023;-87
2023/12/26 00:23:39;;;;;;;1.08;1.00;;;;;;;;;;5981818;23;20022;-88
2023/12/26 00:26:06;;;;;;;1.20;1.10;;;;;;;;;;5978867;23;20018;-88
2023/12/26 00:28:33;;;;;;;1.90;0.80;;;;;;;;;;6054372;23;20384;-88
2023/12/26 00:31:01;;;;;;;0.93;0.60;;;;;;;;;;6054365;23;20455;-88
2023/12/26 00:33:29;;;;;;;;;;;;;;;;;;5981952;23;20159;-89
2023/12/26 00:35:58;;;;;;;0.90;0.80;;;;;;;;;;6051058;23;19917;-89
2023/12/26 00:38:27;;;;;;;1.13;0.90;;;;;;;;;;6005102;23;20607;-88
2023/12/26 00:40:54;;;;;;;0.70;0.70;;;;;;;;;;5982082;23;20611;-89
2023/12/26 00:43:22;;;;;;;1.00;0.65;;;;;;;;;;5982945;23;20138;-88
2023/12/26 00:45:53;;;;;;;0.70;0.68;;;;;;;;;;5984105;23;20027;-88
2023/12/26 00:48:20;;;;;;;0.87;0.70;;;;;;;;;;6031487;23;20078;-88
2023/12/26 00:50:49;;;;;;;0.70;0.70;;;;;;;;;;6060057;23;20014;-88
2023/12/26 00:53:16;;;;;;;0.75;0.75;;;;;;;;;;6057796;23;20018;-88
2023/12/26 00:55:44;;;;;;;1.95;1.27;;;;;;;;;;6060469;23;20663;-88
2023/12/26 00:58:10;;;;;;;0.80;0.80;;;;;;;;;;6057017;23;20030;-89
2023/12/26 01:00:37;;;;;;;0.70;0.70;;;;;;;;;;6060718;23;20026;-88
2023/12/26 01:03:05;;;;;;;2.03;0.60;;;;;;;;;;6081322;23;20335;-88
2023/12/26 01:05:32;;;;;;;0.67;0.60;;;;;;;;;;6061492;23;20081;-87
2023/12/26 01:07:58;;;;;;;2.67;0.70;;;;;;;;;;6053660;23;20462;-88
2023/12/26 01:10:25;;;;;;;0.47;0.47;;;;;;;;;;6084583;23;20050;-87
2023/12/26 01:12:52;;;;;;;1.00;0.60;;;;;;;;;;6060176;23;20534;-88
2023/12/26 01:15:21;;;;;;;0.50;0.50;;;;;;;;;;6060388;23;20109;-88
2023/12/26 01:17:47;;;;;;;;;;;;;;;;;;6062650;23;20022;-88
2023/12/26 01:20:14;;;;;;;0.65;0.52;;;;;;;;;;6059673;23;20345;-88
2023/12/26 01:22:41;;;;;;;1.05;0.65;;;;;;;;;;6084894;23;20104;-88
2023/12/26 01:25:08;;;;;;;0.60;0.60;;;;;;;;;;6060481;23;20069;-89
2023/12/26 01:27:37;;;;;;;0.93;0.52;;;;;;;;;;6062745;23;20011;-88
2023/12/26 01:30:05;;;;;;;1.17;0.70;;;;;;;;;;6060883;23;20025;-88
2023/12/26 01:32:32;;;;;;;2.60;0.97;;;;;;;;;;6062638;23;20019;-87
2023/12/26 01:35:00;;;;;;;0.70;0.70;;;;;;;;;;6061644;23;20029;-88
2023/12/26 01:37:27;;;;;;;1.43;0.70;;;;;;;;;;6062967;23;20032;-88
2023/12/26 01:39:54;;;;;;;0.68;0.68;;;;;;;;;;6061054;23;20022;-88
2023/12/26 01:42:22;;;;;;;1.85;0.70;;;;;;;;;;6063055;23;20026;-88
2023/12/26 01:44:49;;;;;;;1.05;0.55;;;;;;;;;;6063372;23;20097;-88
2023/12/26 01:47:16;;;;;;;3.15;0.68;;;;;;;;;;6061574;23;20447;-88
2023/12/26 01:49:45;;;;;;;2.27;0.80;;;;;;;;;;6063113;23;20018;-88
2023/12/26 01:52:13;;;;;;;1.45;0.73;;;;;;;;;;6061271;23;20053;-88
2023/12/26 01:54:40;;;;;;;2.55;0.63;;;;;;;;;;6059712;23;20022;-88
2023/12/26 01:57:06;;;;;;;0.65;0.65;;;;;;;;;;6060061;23;20751;-88
2023/12/26 01:59:36;;;;;;;3.47;0.80;;;;;;;;;;6061539;23;20097;-87
2023/12/26 02:02:04;;;;;;;2.35;0.80;;;;;;;;;;6058017;23;20025;-87
2023/12/26 02:04:32;;;;;;;3.13;0.70;;;;;;;;;;6061242;23;20495;-87
2023/12/26 02:06:59;;;;;;;1.33;0.80;;;;;;;;;;6060238;23;20037;-88
2023/12/26 02:09:27;;;;;;;3.42;0.82;;;;;;;;;;6061109;23;20022;-88
2023/12/26 02:11:55;;;;;;;5.10;0.80;;;;;;;;;;6061297;23;20054;-88
2023/12/26 02:14:22;;;;;;;3.60;0.80;;;;;;;;;;6061471;23;20045;-88
2023/12/26 02:16:49;;;;;;;3.92;1.00;;;;;;;;;;6061700;23;20030;-87
2023/12/26 02:19:18;;;;;;;6.40;1.20;;;;;;;;;;6056755;23;20622;-88
2023/12/26 02:21:46;;;;;;;5.53;1.33;;;;;;;;;;6062576;23;20019;-88
2023/12/26 02:24:13;;;;;;;4.60;0.82;;;;;;;;;;6058344;23;20029;-88
2023/12/26 02:26:42;;;;;;;7.60;0.98;;;;;;;;;;6085833;23;20025;-88
2023/12/26 02:29:10;;;;;;;5.05;1.10;;;;;;;;;;6059151;23;20018;-87
2023/12/26 02:31:39;;;;;;;4.55;1.23;;;;;;;;;;6061687;23;20023;-88
2023/12/26 02:34:06;;;;;;;4.07;0.82;;;;;;;;;;6058889;23;20045;-88
2023/12/26 02:36:34;;;;;;;4.72;0.98;;;;;;;;;;6063606;23;20029;-87
2023/12/26 02:39:04;;;;;;;8.23;0.80;;;;;;;;;;6083709;23;20014;-88
2023/12/26 02:41:32;;;;;;;4.30;0.73;;;;;;;;;;6062436;23;20093;-88
2023/12/26 02:44:00;;;;;;;;;;;;;;;;;;6060424;23;20078;-88
2023/12/26 02:46:27;;;;;;;6.63;1.20;;;;;;;;;;6085032;23;19912;-87
2023/12/26 02:48:56;;;;;;;4.20;1.00;;;;;;;;;;6057896;23;20033;-88
2023/12/26 02:51:23;;;;;;;3.95;0.88;;;;;;;;;;6061895;23;20054;-87
2023/12/26 02:53:51;;;;;;;6.28;0.80;;;;;;;;;;6083011;23;20018;-88
2023/12/26 02:56:18;;;;;;;;;;;;;;;;;;6060823;23;20105;-88
2023/12/26 02:58:45;;;;;;;6.15;1.00;;;;;;;;;;6084680;23;20610;-87
2023/12/26 03:01:11;;;;;;;7.65;1.10;;;;;;;;;;6059123;23;20023;-88
2023/12/26 03:03:38;;;;;;;7.13;1.10;;;;;;;;;;6060685;23;20020;-88
2023/12/26 03:06:07;;;;;;;3.13;1.55;;;;;;;;;;6059253;23;20478;-87
2023/12/26 03:08:35;;;;;;;5.32;1.05;;;;;;;;;;6061816;23;20113;-87
2023/12/26 03:11:03;;;;;;;4.20;0.82;;;;;;;;;;6072163;23;20029;-87
2023/12/26 03:13:31;;;;;;;6.18;1.10;;;;;;;;;;6082998;23;20740;-88
2023/12/26 03:15:58;;;;;;;6.78;1.70;;;;;;;;;;6084004;23;20116;-88
2023/12/26 03:18:29;;;;;;;9.65;1.58;;;;;;;;;;6087504;23;20015;-87
2023/12/26 03:20:56;;;;;;;10.60;1.47;;;;;;;;;;6056304;23;20033;-87
2023/12/26 03:23:23;;;;;;;2.47;1.00;;;;;;;;;;6060900;23;20046;-87
2023/12/26 03:25:50;;;;;;;4.40;1.50;;;;;;;;;;6060313;23;20022;-87
2023/12/26 03:28:18;;;;;;;5.32;1.00;;;;;;;;;;6058446;23;20498;-87
2023/12/26 03:30:45;;;;;;;8.60;1.20;;;;;;;;;;6058810;23;20034;-87
2023/12/26 03:33:12;;;;;;;5.65;1.05;;;;;;;;;;6082182;23;20258;-88
2023/12/26 03:35:39;;;;;;;7.45;1.42;;;;;;;;;;6083452;23;20410;-88
2023/12/26 03:38:06;;;;;;;5.93;1.08;;;;;;;;;;6054350;23;20069;-88
2023/12/26 03:40:33;;;;;;;4.40;1.25;;;;;;;;;;6084830;23;20027;-88
2023/12/26 03:43:01;;;;;;;2.38;0.82;;;;;;;;;;6059178;23;20021;-88
2023/12/26 03:45:29;;;;;;;5.65;1.10;;;;;;;;;;6059911;23;20022;-88
2023/12/26 03:47:57;;;;;;;1.43;0.80;;;;;;;;;;6082891;23;20023;-88
2023/12/26 03:50:26;;;;;;;3.85;0.88;;;;;;;;;;6060989;23;20527;-88
2023/12/26 03:52:53;;;;;;;3.40;0.82;;;;;;;;;;6061216;23;20033;-88
2023/12/26 03:55:20;;;;;;;5.00;0.70;;;;;;;;;;6059928;23;20026;-87
2023/12/26 03:57:48;;;;;;;6.32;0.88;;;;;;;;;;6060991;23;20022;-87
2023/12/26 04:00:14;;;;;;;3.45;0.98;;;;;;;;;;6059200;23;20779;-88
2023/12/26 04:02:42;;;;;;;6.55;1.10;;;;;;;;;;6060741;23;20033;-88
2023/12/26 04:05:12;;;;;;;2.53;0.82;;;;;;;;;;6057030;23;20019;-87
2023/12/26 04:07:39;;;;;;;4.45;0.88;;;;;;;;;;6060788;23;20022;-88
2023/12/26 04:10:07;;;;;;;4.18;1.15;;;;;;;;;;6056133;23;20018;-87
2023/12/26 04:12:37;;;;;;;4.43;1.00;;;;;;;;;;6085126;23;20376;-88
2023/12/26 04:15:03;;;;;;;6.18;1.20;;;;;;;;;;6055196;23;20022;-87
2023/12/26 04:17:30;;;;;;;6.57;1.15;;;;;;;;;;6059118;23;20018;-87
2023/12/26 04:19:58;;;;;;;6.40;1.00;;;;;;;;;;6057773;23;20053;-87
2023/12/26 04:22:25;;;;;;;3.47;1.20;;;;;;;;;;6061467;23;20030;-87
2023/12/26 04:24:52;;;;;;;6.10;1.70;;;;;;;;;;6061696;23;20351;-87
2023/12/26 04:27:19;;;;;;;5.38;1.10;;;;;;;;;;6060448;23;20324;-87
2023/12/26 04:29:47;;;;;;;10.82;1.30;;;;;;;;;;6060474;23;20018;-87
2023/12/26 04:32:15;;;;;;;3.47;1.00;;;;;;;;;;6054699;23;20033;-87
2023/12/26 04:34:43;;;;;;;;;;;;;;;;;;6060313;23;20343;-87
2023/12/26 04:37:10;;;;;;;6.65;1.45;;;;;;;;;;6081313;23;20017;-87
2023/12/26 04:39:37;;;;;;;5.30;0.90;;;;;;;;;;6060028;23;20052;-87
2023/12/26 04:42:04;;;;;;;7.07;1.15;;;;;;;;;;6058060;23;20025;-87
2023/12/26 04:44:33;;;;;;;13.60;1.40;;;;;;;;;;6061081;23;20113;-87
2023/12/26 04:47:00;;;;;;;5.15;1.00;;;;;;;;;;6058490;23;20014;-87
2023/12/26 04:49:27;;;;;;;10.02;1.98;;;;;;;;;;6059900;23;20023;-87
2023/12/26 04:51:54;;;;;;;12.05;1.50;;;;;;;;;;6061451;23;20069;-88
2023/12/26 04:54:22;;;;;;;4.77;1.83;;;;;;;;;;6062474;23;20026;-87
2023/12/26 04:56:50;;;;;;;7.72;1.52;;;;;;;;;;6060384;23;20270;-88
2023/12/26 04:59:17;;;;;;;8.30;1.45;;;;;;;;;;6083928;23;20105;-87
2023/12/26 05:01:44;;;;;;;9.23;2.10;;;;;;;;;;6061435;23;20029;-87
2023/12/26 05:04:11;;;;;;;6.82;1.33;;;;;;;;;;6059298;23;20038;-87
2023/12/26 05:06:38;;;;;;;10.18;1.63;;;;;;;;;;6085682;23;20018;-87
2023/12/26 05:09:07;;;;;;;4.78;0.98;;;;;;;;;;6084775;23;20025;-88
2023/12/26 05:11:34;;;;;;;14.88;1.50;;;;;;;;;;6063637;23;20018;-87
2023/12/26 05:14:01;;;;;;;9.50;2.00;;;;;;;;;;6059918;23;20063;-88
2023/12/26 05:16:29;;;;;;;10.00;1.77;;;;;;;;;;6062966;23;20015;-87
2023/12/26 05:18:57;;;;;;;5.72;1.52;;;;;;;;;;6059982;23;20082;-88
2023/12/26 05:21:25;;;;;;;8.98;1.67;;;;;;;;;;6062365;23;20022;-87
2023/12/26 05:23:53;;;;;;;10.88;1.83;;;;;;;;;;6063226;23;20029;-87
2023/12/26 05:26:20;;;;;;;4.05;1.20;;;;;;;;;;6063836;23;20062;-87
2023/12/26 05:28:46;;;;;;;4.78;1.65;;;;;;;;;;6087976;23;20402;-87
2023/12/26 05:31:14;;;;;;;7.20;1.08;;;;;;;;;;6059953;23;20129;-87
2023/12/26 05:33:41;;;;;;;11.98;1.88;;;;;;;;;;6085935;23;20023;-87
2023/12/26 05:36:08;;;;;;;6.53;1.58;;;;;;;;;;6051447;23;20046;-87
2023/12/26 05:38:36;;;;;;;8.27;2.20;;;;;;;;;;6063076;23;20038;-87
2023/12/26 05:41:07;;;;;;;7.72;2.17;;;;;;;;;;6061318;23;20030;-87
2023/12/26 05:43:38;;;;;;;5.82;1.50;;;;;;;;;;6087115;23;20011;-87
2023/12/26 05:46:05;;;;;;;7.53;1.52;;;;;;;;;;6084925;23;20115;-87
2023/12/26 05:48:32;;;;;;;6.83;1.40;;;;;;;;;;6063074;23;20033;-87
2023/12/26 05:51:01;;;;;;;8.07;1.70;;;;;;;;;;6084225;23;20033;-87
2023/12/26 05:53:37;;;;;;;8.52;1.55;;;;;;;;;;6086317;23;20018;-87
2023/12/26 05:56:04;;;;;;;5.13;1.23;;;;;;;;;;6058322;23;20054;-87
2023/12/26 05:58:39;;;;;;;5.45;1.33;;;;;;;;;;6051702;23;20085;-87
2023/12/26 06:01:16;;;;;;;6.47;1.48;;;;;;;;;;6081470;23;20069;-87
2023/12/26 06:03:43;;;;;;;8.00;1.15;;;;;;;;;;6061740;23;20058;-87
2023/12/26 06:06:12;;;;;;;3.10;1.00;;;;;;;;;;6059579;23;20509;-87
2023/12/26 06:08:41;;;;;;;6.18;1.30;;;;;;;;;;6061601;23;20023;-86
2023/12/26 06:11:08;;;;;;;5.97;1.40;;;;;;;;;;6059627;23;20018;-87
2023/12/26 06:13:37;;;;;;;8.32;1.65;;;;;;;;;;6061448;23;20022;-87
2023/12/26 06:16:05;;;;;;;4.70;1.10;;;;;;;;;;6059644;23;20088;-87
2023/12/26 06:18:33;;;;;;;5.95;1.20;;;;;;;;;;6061547;23;20456;-87
2023/12/26 06:21:03;;;;;;;5.45;1.38;;;;;;;;;;6084152;23;20436;-87
2023/12/26 06:23:32;;;;;;;6.33;1.20;;;;;;;;;;6061934;23;20195;-87
2023/12/26 06:26:00;;;;;;;3.80;1.20;;;;;;;;;;6060135;23;20097;-87
2023/12/26 06:28:27;;;;;;;3.75;1.58;;;;;;;;;;6061046;23;20018;-87
2023/12/26 06:30:55;;;;;;;7.25;2.17;;;;;;;;;;6060538;23;20110;-88
2023/12/26 06:33:23;;;;;;;7.40;1.52;;;;;;;;;;6059041;23;20114;-87
2023/12/26 06:35:50;;;;;;;2.42;0.82;;;;;;;;;;6084230;23;20471;-88
2023/12/26 06:38:18;;;;;;;5.25;1.20;;;;;;;;;;6060029;23;20077;-87
2023/12/26 06:40:45;;;;;;;5.63;1.00;;;;;;;;;;6084628;23;20443;-87
2023/12/26 06:43:16;;;;;;;6.13;1.50;;;;;;;;;;6057323;23;20026;-86
2023/12/26 06:45:45;;;;;;;5.10;2.15;;;;;;;;;;6085457;23;20030;-87
2023/12/26 06:48:12;;;;;;;8.23;1.42;;;;;;;;;;6060092;23;20023;-87
2023/12/26 06:50:39;;;;;;;8.15;1.48;;;;;;;;;;6061236;23;20145;-87
2023/12/26 06:53:08;;;;;;;7.07;1.95;;;;;;;;;;6058981;23;20383;-87
2023/12/26 06:55:36;;;;;;;3.28;1.08;;;;;;;;;;6061724;23;20088;-87
2023/12/26 06:58:04;;;;;;;5.70;1.27;;;;;;;;;;6059470;23;20443;-86
2023/12/26 07:00:32;;;;;;;8.77;1.63;;;;;;;;;;6060442;23;20018;-87
2023/12/26 07:03:00;;;;;;;6.22;2.05;;;;;;;;;;6059238;23;20530;-87
2023/12/26 07:05:28;;;;;;;6.75;1.90;;;;;;;;;;6085106;23;20026;-87
2023/12/26 07:07:57;;;;;;;6.07;1.20;;;;;;;;;;6058486;23;20124;-88
2023/12/26 07:10:26;;;;;;;6.97;1.63;;;;;;;;;;6059582;23;20093;-87
2023/12/26 07:12:54;;;;;;;7.90;1.75;;;;;;;;;;6084801;23;20125;-87
2023/12/26 07:15:21;;;;;;;6.80;1.52;;;;;;;;;;6061165;23;20026;-87
2023/12/26 07:17:50;;;;;;;12.20;1.60;;;;;;;;;;6061150;23;20037;-87
2023/12/26 07:20:17;;;;;;;8.10;1.30;;;;;;;;;;6058753;23;20560;-87
2023/12/26 07:22:44;;;;;;;9.90;1.57;;;;;;;;;;6060172;23;20026;-87
2023/12/26 07:25:11;;;;;;;8.73;1.70;;;;;;;;;;6060130;23;20345;-87
2023/12/26 07:27:39;;;;;;;8.18;1.95;;;;;;;;;;6058091;23;20463;-86
2023/12/26 07:30:07;;;;;;;8.88;1.55;;;;;;;;;;6057650;23;20953;-87
2023/12/26 07:32:35;;;;;;;6.97;1.92;;;;;;;;;;6054434;23;20019;-87
2023/12/26 07:35:03;;;;;;;6.03;1.50;;;;;;;;;;5977750;23;20030;-86
2023/12/26 07:37:32;;;;;;;7.10;1.40;;;;;;;;;;6029347;23;20495;-87
2023/12/26 07:39:59;;;;;;;10.00;1.98;;;;;;;;;;5981006;23;20027;-87
2023/12/26 07:42:27;;;;;;;5.73;1.50;;;;;;;;;;5981241;23;20074;-87
2023/12/26 07:44:54;;;;;;;8.68;1.60;;;;;;;;;;5982212;23;20029;-87
2023/12/26 07:47:22;;;;;;;4.80;1.58;;;;;;;;;;6007862;23;20472;-87
2023/12/26 07:49:51;;;;;;;6.97;1.77;;;;;;;;;;5982119;23;20194;-87
2023/12/26 07:52:21;;;;;;;14.00;2.15;;;;;;;;;;6008765;23;20054;-87
2023/12/26 07:54:48;;;;;;;7.85;1.20;;;;;;;;;;6052034;23;20105;-87
2023/12/26 07:57:14;;;;;;;10.07;1.58;;;;;;;;;;5999969;23;20034;-87
2023/12/26 07:59:42;;;;;;;8.68;1.42;;;;;;;;;;5956327;23;20062;-87
2023/12/26 08:02:09;;;;;;;6.47;1.30;;;;;;;;;;5999043;23;20019;-86
2023/12/26 08:04:36;;;;;;;8.23;1.27;;;;;;;;;;5978568;23;20019;-87
2023/12/26 08:07:07;;;;;;;9.00;1.90;;;;;;;;;;5953470;23;20045;-87
2023/12/26 08:09:35;;;;;;;7.85;2.28;;;;;;;;;;5978689;23;20496;-87
2023/12/26 08:12:04;;;;;;;4.87;1.40;;;;;;;;;;5998124;23;20030;-87
2023/12/26 08:14:31;;;;;;;6.13;1.38;;;;;;;;;;5978168;23;20299;-87
2023/12/26 08:17:00;;;;;;;6.70;1.40;;;;;;;;;;6022448;23;20044;-87
2023/12/26 08:19:29;;;;;;;5.90;1.35;;;;;;;;;;5955911;23;20423;-87
2023/12/26 08:21:57;;;;;;;5.95;1.77;;;;;;;;;;6000696;23;20449;-87
2023/12/26 08:24:24;;;;;;;10.90;1.95;;;;;;;;;;5979096;23;20034;-87
2023/12/26 08:26:57;;;;;;;9.50;1.88;;;;;;;;;;5979664;23;20019;-86
2023/12/26 08:29:25;;;;;;;8.50;1.88;;;;;;;;;;5958347;23;20432;-87
2023/12/26 08:31:53;;;;;;;5.25;1.33;;;;;;;;;;5958549;23;20022;-88
2023/12/26 08:34:20;;;;;;;7.65;1.25;;;;;;;;;;5979940;23;20023;-88
2023/12/26 08:36:48;;;;;;;9.13;1.63;;;;;;;;;;5979042;23;20048;-87
2023/12/26 08:39:16;;;;;;;5.82;1.35;;;;;;;;;;5976086;23;20547;-88
2023/12/26 08:41:43;;;;;;;;;;;;;;;;;;5989726;23;20019;-87
2023/12/26 08:44:12;;;;;;;4.53;1.13;;;;;;;;;;6008797;23;19933;-88
2023/12/26 08:46:41;;;;;;;11.23;2.35;;;;;;;;;;6035224;23;20019;-88
2023/12/26 08:49:09;;;;;;;9.15;1.60;;;;;;;;;;6030071;23;20019;-88
2023/12/26 08:51:41;;;;;;;7.95;1.40;;;;;;;;;;6034868;23;20015;-88
2023/12/26 08:54:11;;;;;;;6.20;1.55;;;;;;;;;;6030994;23;20019;-88
2023/12/26 08:56:39;;;;;;;5.35;1.00;;;;;;;;;;6073272;23;20304;-88
2023/12/26 08:59:07;;;;;;;7.95;1.63;;;;;;;;;;6059837;23;20396;-88
2023/12/26 09:01:35;;;;;;;12.90;2.15;;;;;;;;;;6086696;23;20018;-87
2023/12/26 09:04:07;;;;;;;7.75;1.85;;;;;;;;;;6056811;23;20058;-88
2023/12/26 09:06:36;;;;;;;7.43;1.02;;;;;;;;;;6058026;23;20065;-87
2023/12/26 09:09:05;;;;;;;11.77;1.65;;;;;;;;;;6062160;23;20046;-88
2023/12/26 09:11:33;;;;;;;17.88;2.90;;;;;;;;;;6063076;23;20041;-88
2023/12/26 09:14:01;;;;;;;9.52;1.65;;;;;;;;;;6078631;23;20018;-88
2023/12/26 09:16:28;;;;;;;9.25;1.73;;;;;;;;;;6062535;23;20485;-88
2023/12/26 09:18:57;;;;;;;4.78;1.67;;;;;;;;;;6059145;23;20057;-88
2023/12/26 09:21:25;;;;;;;14.50;2.13;;;;;;;;;;6062385;23;20129;-87
2023/12/26 09:23:52;;;;;;;9.27;1.70;;;;;;;;;;6060386;23;20026;-88
2023/12/26 09:26:24;;;;;;;12.23;1.60;;;;;;;;;;6085059;23;20015;-88
2023/12/26 09:28:55;;;;;;;4.63;1.42;;;;;;;;;;6085645;23;20061;-89
2023/12/26 09:31:21;;;;;;;11.43;1.85;;;;;;;;;;6061308;23;20027;-88
2023/12/26 09:33:50;;;;;;;8.95;1.67;;;;;;;;;;6083642;23;20026;-87
2023/12/26 09:36:19;;;;;;;10.75;1.50;;;;;;;;;;6056855;23;20022;-88
2023/12/26 09:38:47;;;;;;;5.88;1.35;;;;;;;;;;6062287;23;20034;-88
2023/12/26 09:41:15;;;;;;;5.97;1.30;;;;;;;;;;6082035;23;20037;-89
2023/12/26 09:43:43;;;;;;;9.20;1.88;;;;;;;;;;6061643;23;20025;-88
2023/12/26 09:46:11;;;;;;;;;;;;;;;;;;6060601;23;20022;-88
2023/12/26 09:48:38;;;;;;;12.60;2.20;;;;;;;;;;6060236;23;19942;-88
2023/12/26 09:51:06;;;;;;;15.85;1.75;;;;;;;;;;6060294;23;20011;-88
2023/12/26 09:53:35;;;;;;;8.93;1.80;;;;;;;;;;6086931;23;20018;-88
2023/12/26 09:56:03;;;;;;;5.75;2.22;;;;;;;;;;6083415;23;20041;-88
2023/12/26 09:58:30;;;;;;;;;;;;;;;;;;6062526;23;20026;-88
2023/12/26 10:00:57;;;;;;;11.43;1.77;;;;;;;;;;6058442;23;20330;-88
2023/12/26 10:03:25;;;;;;;11.57;1.70;;;;;;;;;;6085353;23;20532;-88
2023/12/26 10:05:57;;;;;;;9.13;1.83;;;;;;;;;;6083039;23;20026;-88
2023/12/26 10:08:25;;;;;;;9.75;2.50;;;;;;;;;;6084481;23;20022;-88
2023/12/26 10:10:52;;;;;;;8.53;1.70;;;;;;;;;;6062388;23;20486;-88
2023/12/26 10:13:19;;;;;;;8.30;1.60;;;;;;;;;;6062099;23;20567;-88
2023/12/26 10:15:48;;;;;;;15.05;1.95;;;;;;;;;;6060819;23;20022;-88
2023/12/26 10:18:15;;;;;;;;;;;;;;;;;;6060451;23;20423;-88
2023/12/26 10:20:42;;;;;;;13.63;2.15;;;;;;;;;;6062463;23;19928;-89
2023/12/26 10:23:12;;;;;;;12.82;1.88;;;;;;;;;;6083670;23;20026;-88
2023/12/26 10:25:40;;;;;;;11.93;2.08;;;;;;;;;;6061347;23;20113;-89
2023/12/26 10:28:07;;;;;;;7.80;1.67;;;;;;;;;;6059248;23;20014;-88
2023/12/26 10:30:36;;;;;;;5.70;1.50;;;;;;;;;;6061340;23;20022;-88
2023/12/26 10:33:03;;;;;;;11.23;2.55;;;;;;;;;;6058187;23;20050;-88
2023/12/26 10:35:30;;;;;;;8.43;2.03;;;;;;;;;;6061636;23;20034;-89
2023/12/26 10:37:58;;;;;;;13.27;1.67;;;;;;;;;;6056868;23;20262;-88
2023/12/26 10:40:26;;;;;;;13.02;2.20;;;;;;;;;;6059166;23;20774;-88
2023/12/26 10:42:53;;;;;;;8.00;1.48;;;;;;;;;;6084475;23;20033;-88
2023/12/26 10:45:21;;;;;;;14.00;2.40;;;;;;;;;;6061943;23;20073;-88
2023/12/26 10:47:51;;;;;;;5.25;1.45;;;;;;;;;;6083887;23;20774;-88
2023/12/26 10:50:18;;;;;;;10.60;1.92;;;;;;;;;;6060390;23;20069;-88
2023/12/26 10:52:52;;;;;;;10.43;1.60;;;;;;;;;;6085312;23;20029;-88
2023/12/26 10:55:19;;;;;;;6.68;1.50;;;;;;;;;;6083166;23;20125;-88
2023/12/26 10:57:47;;;;;;;9.07;1.45;;;;;;;;;;6060758;23;20026;-88
2023/12/26 11:00:14;;;;;;;8.63;1.90;;;;;;;;;;6083095;23;20018;-88
2023/12/26 11:02:41;;;;;;;11.70;1.95;;;;;;;;;;6056351;23;20080;-88
2023/12/26 11:05:08;;;;;;;9.90;1.98;;;;;;;;;;6079790;23;20019;-88
2023/12/26 11:07:37;;;;;;;6.90;2.07;;;;;;;;;;6061582;23;20093;-88
2023/12/26 11:10:05;;;;;;;13.98;1.95;;;;;;;;;;6081500;23;20025;-88
2023/12/26 11:12:32;;;;;;;9.87;2.60;;;;;;;;;;6083212;23;20081;-88
2023/12/26 11:15:03;;;;;;;7.93;1.80;;;;;;;;;;6083449;23;20049;-92
2023/12/26 11:17:31;;;;;;;8.32;1.60;;;;;;;;;;6062990;23;20097;-89
2023/12/26 11:20:00;;;;;;;9.85;1.48;;;;;;;;;;6059772;23;20026;-89
2023/12/26 11:22:29;;;;;;;9.10;1.92;;;;;;;;;;6061967;23;20026;-89
2023/12/26 11:24:56;;;;;;;8.27;2.13;;;;;;;;;;6056468;23;20098;-89
2023/12/26 11:27:23;;;;;;;12.20;1.98;;;;;;;;;;6060177;23;20700;-89
2023/12/26 11:29:51;;;;;;;11.43;1.55;;;;;;;;;;6059689;23;20053;-89
2023/12/26 11:32:18;;;;;;;9.00;2.08;;;;;;;;;;6083094;23;20058;-89
2023/12/26 11:34:46;;;;;;;10.48;1.60;;;;;;;;;;6056906;23;20022;-89
2023/12/26 11:37:14;;;;;;;11.88;1.83;;;;;;;;;;6058048;23;20022;-89
2023/12/26 11:39:41;;;;;;;10.68;1.98;;;;;;;;;;6058886;23;20033;-89
2023/12/26 11:42:08;;;;;;;10.50;1.83;;;;;;;;;;6083736;23;20026;-89
2023/12/26 11:44:38;;;;;;;9.27;2.38;;;;;;;;;;6061426;23;20033;-89
2023/12/26 11:47:05;;;;;;;10.50;1.67;;;;;;;;;;6058364;23;20020;-88
2023/12/26 11:49:32;;;;;;;8.10;1.75;;;;;;;;;;6082984;23;20022;-89
2023/12/26 11:51:58;;;;;;;6.50;1.70;;;;;;;;;;6060012;23;20325;-88
2023/12/26 11:54:27;;;;;;;11.63;2.33;;;;;;;;;;6084431;23;20018;-89
2023/12/26 11:56:53;;;;;;;;;;;;;;;;;;6060458;23;20098;-89
2023/12/26 11:59:21;;;;;;;12.73;1.75;;;;;;;;;;6083056;23;20323;-89
2023/12/26 12:01:48;;;;;;;8.60;1.80;;;;;;;;;;6061482;23;20098;-89
2023/12/26 12:04:15;;;;;;;7.93;2.47;;;;;;;;;;6058816;23;20054;-89
2023/12/26 12:07:02;;;;;;;10.43;2.00;;;;;;;;;;6060256;23;20023;-88
2023/12/26 12:09:30;;;;;;;7.93;1.95;;;;;;;;;;6056814;23;20026;-89
2023/12/26 12:11:58;;;;;;;12.07;2.22;;;;;;;;;;6080735;23;20083;-88
2023/12/26 12:14:25;;;;;;;8.30;1.63;;;;;;;;;;6057586;23;20033;-89
2023/12/26 12:16:52;;;;;;;10.13;2.13;;;;;;;;;;6080479;23;20026;-88
2023/12/26 12:19:21;;;;;;;14.98;2.55;;;;;;;;;;6059601;23;20093;-88
2023/12/26 12:21:48;;;;;;;7.95;1.48;;;;;;;;;;6062652;23;20022;-88
2023/12/26 12:24:22;;;;;;;6.97;1.60;;;;;;;;;;6057477;23;20026;-88
2023/12/26 12:27:06;;;;;;;9.52;1.20;;;;;;;;;;6058562;23;20022;-89
2023/12/26 12:29:52;;;;;;;8.60;2.10;;;;;;;;;;6059378;23;20439;-89
2023/12/26 12:32:19;;;;;;;7.38;1.70;;;;;;;;;;6083029;23;20025;-88
2023/12/26 12:35:10;;;;;;;9.13;1.80;;;;;;;;;;6082684;23;20026;-89
2023/12/26 12:37:38;;;;;;;8.95;1.65;;;;;;;;;;6046773;23;20022;-89
2023/12/26 12:40:07;;;;;;;11.10;1.83;;;;;;;;;;6054332;23;20026;-89
2023/12/26 12:42:34;;;;;;;13.10;1.70;;;;;;;;;;6060086;23;20459;-88
2023/12/26 12:45:05;;;;;;;6.95;1.75;;;;;;;;;;6080656;23;20026;-89
2023/12/26 12:47:36;;;;;;;9.93;1.90;;;;;;;;;;6059816;23;20019;-88
2023/12/26 12:50:05;;;;;;;5.63;1.60;;;;;;;;;;6056783;23;20068;-89
2023/12/26 12:52:37;;;;;;;7.60;1.58;;;;;;;;;;6060662;23;20022;-89
2023/12/26 12:55:05;;;;;;;9.75;2.60;;;;;;;;;;6057909;23;20470;-89
2023/12/26 12:57:33;;;;;;;8.23;1.98;;;;;;;;;;6059893;23;20026;-89
2023/12/26 13:00:03;;;;;;;10.95;1.95;;;;;;;;;;6057586;23;20029;-89
2023/12/26 13:02:31;;;;;;;9.05;1.55;;;;;;;;;;6084235;23;20097;-89
2023/12/26 13:04:58;;;;;;;;;;;;;;;;;;6059004;23;20026;-89
2023/12/26 13:07:30;;;;;;;5.68;1.20;;;;;;;;;;6060902;23;19913;-89
2023/12/26 13:09:58;;;;;;;6.22;1.30;;;;;;;;;;6057126;23;20018;-89
2023/12/26 13:12:27;;;;;;;7.88;1.73;;;;;;;;;;6062609;23;20054;-89
2023/12/26 13:14:54;;;;;;;6.38;1.60;;;;;;;;;;6061210;23;20480;-89
2023/12/26 13:17:23;;;;;;;8.20;1.67;;;;;;;;;;6061305;23;20057;-88
2023/12/26 13:19:50;;;;;;;7.07;1.85;;;;;;;;;;6086008;23;20081;-89
2023/12/26 13:22:17;;;;;;;8.17;1.50;;;;;;;;;;6083016;23;20022;-89
2023/12/26 13:24:54;;;;;;;6.93;1.33;;;;;;;;;;6085594;23;20302;-88
2023/12/26 13:27:24;;;;;;;5.10;2.17;;;;;;;;;;6063191;23;20019;-89
2023/12/26 13:29:51;;;;;;;13.70;2.17;;;;;;;;;;6061092;23;20014;-89
2023/12/26 13:32:18;;;;;;;8.23;1.50;;;;;;;;;;6061164;23;20101;-89
2023/12/26 13:34:45;;;;;;;10.93;2.05;;;;;;;;;;6060637;23;20562;-88
2023/12/26 13:37:12;;;;;;;8.63;1.70;;;;;;;;;;6060828;23;20412;-89
2023/12/26 13:39:39;;;;;;;9.38;1.83;;;;;;;;;;6058420;23;20014;-89
2023/12/26 13:42:07;;;;;;;4.78;1.40;;;;;;;;;;6082850;23;20018;-90
2023/12/26 13:44:36;;;;;;;7.07;1.50;;;;;;;;;;6060772;23;20526;-88
2023/12/26 13:47:03;;;;;;;6.03;1.23;;;;;;;;;;6060223;23;20080;-89
2023/12/26 13:49:31;;;;;;;9.50;1.52;;;;;;;;;;6083691;23;20014;-88
2023/12/26 13:51:58;;;;;;;7.20;1.30;;;;;;;;;;6083947;23;20018;-89
2023/12/26 13:54:26;;;;;;;3.75;1.10;;;;;;;;;;6061137;23;20057;-89
2023/12/26 13:56:53;;;;;;;5.82;2.13;;;;;;;;;;6063524;23;20027;-89
2023/12/26 13:59:22;;;;;;;6.60;1.48;;;;;;;;;;6088015;23;20023;-88
2023/12/26 14:01:49;;;;;;;13.48;1.60;;;;;;;;;;6087974;23;20019;-89
2023/12/26 14:04:17;;;;;;;7.28;1.52;;;;;;;;;;6084952;23;20070;-89
2023/12/26 14:06:43;;;;;;;8.23;1.30;;;;;;;;;;6063580;23;20057;-89
2023/12/26 14:09:10;;;;;;;3.97;1.15;;;;;;;;;;6061588;23;20631;-87
2023/12/26 14:11:37;;;;;;;4.53;1.60;;;;;;;;;;6065176;23;20025;-88
2023/12/26 14:14:06;;;;;;;7.28;1.60;;;;;;;;;;6086112;23;20014;-89
2023/12/26 14:16:34;;;;;;;6.38;0.93;;;;;;;;;;6087918;23;20343;-89
2023/12/26 14:19:01;;;;;;;3.57;0.90;;;;;;;;;;6061214;23;20026;-89
2023/12/26 14:21:29;;;;;;;3.33;0.82;;;;;;;;;;6062229;23;20102;-89
2023/12/26 14:23:56;;;;;;;2.83;1.27;;;;;;;;;;6061264;23;20018;-89
2023/12/26 14:26:26;;;;;;;2.95;1.15;;;;;;;;;;6062490;23;20018;-88
2023/12/26 14:28:55;;;;;;;5.03;1.10;;;;;;;;;;6087895;23;20151;-89
2023/12/26 14:31:24;;;;;;;2.85;0.50;;;;;;;;;;6063691;23;20023;-88
2023/12/26 14:33:52;;;;;;;5.65;1.17;;;;;;;;;;6062700;23;20010;-88
2023/12/26 14:36:20;;;;;;;;;;;;;;;;;;6087114;23;20033;-88
2023/12/26 14:38:47;;;;;;;4.38;0.60;;;;;;;;;;6062251;23;19928;-88
2023/12/26 14:41:14;;;;;;;1.15;0.80;;;;;;;;;;6058141;23;20026;-88
2023/12/26 14:43:42;;;;;;;3.10;0.97;;;;;;;;;;6063311;23;20112;-89
2023/12/26 14:46:10;;;;;;;0.95;0.50;;;;;;;;;;6060595;23;20026;-88
2023/12/26 14:48:37;;;;;;;4.20;0.60;;;;;;;;;;6086553;23;20022;-89
2023/12/26 14:51:04;;;;;;;2.83;0.88;;;;;;;;;;6080488;23;20022;-88